Terminal Aerodrome Forecast
Issued by NWS

Home | Current Version | Previous Version | Text Only | Print | Product List | Glossary On
Versions: 1 2 3 4 5 6 7 8 9 10 11 12 13 14 15 16 17 18 19 20 21 22
000
FTUS43 KICT 241500 AAD
TAFHUT
TAF AMD
KHUT 241504Z 2415/2512 18007KT 2SM BR OVC002
      TEMPO 2415/2416 5SM BR SCT005 OVC300
     FM241600 21009KT P6SM BKN300=

USA.gov is the U.S. government's official web portal to all federal, state and local government web resources and services.